Time;durP1;ratioP1;P1;durP2;ratioP2;P2;SDS_P1;SDS_P2;PMS_P1;PMS_P2;Temp;Humidity;BMP_temperature;BMP_pressure;BME280_temperature;BME280_humidity;BME280_pressure;Samples;Min_cycle;Max_cycle;Signal;HPM_P1;HPM_P2
2024/01/21 00:02:26;;;;;;;15.97;12.90;;;;;;;-4.50;100.00;97867.59;5110461;28;20254;-60
2024/01/21 00:04:55;;;;;;;17.23;13.00;;;;;;;-4.49;100.00;97869.28;5111156;28;20243;-58
2024/01/21 00:07:22;;;;;;;15.70;12.47;;;;;;;-4.58;100.00;97872.88;5112305;28;20209;-59
2024/01/21 00:09:48;;;;;;;15.80;12.63;;;;;;;-4.57;100.00;97872.00;5110860;28;20209;-59
2024/01/21 00:12:15;;;;;;;17.60;12.93;;;;;;;-4.62;100.00;97866.03;5110793;28;20205;-59
2024/01/21 00:14:42;;;;;;;16.50;13.20;;;;;;;-4.61;100.00;97865.19;5110830;28;20550;-59
2024/01/21 00:17:08;;;;;;;16.73;12.47;;;;;;;-4.61;100.00;97860.00;5110882;28;20215;-59
2024/01/21 00:19:36;;;;;;;14.50;11.80;;;;;;;-4.68;100.00;97861.84;5110932;28;20201;-60
2024/01/21 00:22:03;;;;;;;14.57;12.60;;;;;;;-4.66;100.00;97862.66;5110322;28;20239;-59
2024/01/21 00:24:30;;;;;;;15.33;12.73;;;;;;;-4.81;100.00;97869.75;5110807;28;20220;-58
2024/01/21 00:26:56;;;;;;;16.53;12.23;;;;;;;-4.79;100.00;97868.88;5110551;28;20205;-59
2024/01/21 00:29:23;;;;;;;17.10;12.90;;;;;;;-4.63;100.00;97882.41;5110829;28;20234;-58
2024/01/21 00:31:49;;;;;;;15.77;12.80;;;;;;;-4.64;100.00;97872.97;5109888;28;20216;-58
2024/01/21 00:34:16;;;;;;;16.77;12.77;;;;;;;-4.65;100.00;97873.84;5110790;28;20299;-58
2024/01/21 00:36:45;;;;;;;18.73;13.10;;;;;;;-4.71;100.00;97873.94;5109657;28;20208;-58
2024/01/21 00:39:12;;;;;;;16.50;13.90;;;;;;;-4.74;100.00;97873.94;5110086;28;20201;-58
2024/01/21 00:41:38;;;;;;;17.53;13.40;;;;;;;-4.63;100.00;97874.66;5110259;28;20292;-57
2024/01/21 00:44:05;;;;;;;16.10;12.70;;;;;;;-4.74;100.00;97873.94;5107713;28;20217;-58
2024/01/21 00:46:31;;;;;;;18.27;13.17;;;;;;;-4.81;100.00;97872.31;5109374;28;20288;-58
2024/01/21 00:48:59;;;;;;;18.40;12.93;;;;;;;-4.81;100.00;97872.31;5110384;28;20201;-57
2024/01/21 00:51:26;;;;;;;14.90;12.53;;;;;;;-4.87;100.00;97874.97;5110817;28;20201;-59
2024/01/21 00:53:54;;;;;;;14.77;12.83;;;;;;;-4.69;100.00;97872.16;5110883;28;20193;-58
2024/01/21 00:56:24;;;;;;;15.97;12.10;;;;;;;-4.65;100.00;97874.69;5109905;28;20261;-57
2024/01/21 00:58:51;;;;;;;16.27;12.47;;;;;;;-4.59;100.00;97881.47;5110147;28;20554;-56
2024/01/21 01:01:17;;;;;;;17.67;12.63;;;;;;;-4.58;100.00;97880.63;5109671;28;20534;-58
2024/01/21 01:03:44;;;;;;;15.90;12.33;;;;;;;-4.62;100.00;97878.94;5110327;28;20220;-58
2024/01/21 01:06:10;;;;;;;16.77;12.73;;;;;;;-4.56;100.00;97877.13;5111204;28;20291;-57
2024/01/21 01:08:37;;;;;;;15.70;12.83;;;;;;;-4.59;100.00;97881.47;5114478;27;20759;-58
2024/01/21 01:11:05;;;;;;;15.67;12.67;;;;;;;-4.55;100.00;97876.25;5113944;28;20208;-58
2024/01/21 01:13:32;;;;;;;14.77;12.13;;;;;;;-4.59;100.00;97878.91;5113173;28;20208;-56
2024/01/21 01:15:59;;;;;;;15.77;12.10;;;;;;;-4.60;100.00;97878.03;5111235;27;20208;-56
2024/01/21 01:18:27;;;;;;;15.57;11.47;;;;;;;-4.53;100.00;97873.66;5112459;28;20205;-57
2024/01/21 01:20:55;;;;;;;15.40;12.53;;;;;;;-4.58;100.00;97883.19;5111998;28;20299;-58
2024/01/21 01:23:22;;;;;;;14.70;12.00;;;;;;;-4.71;100.00;97882.50;5112490;28;20223;-57
2024/01/21 01:25:48;;;;;;;15.40;12.87;;;;;;;-4.78;100.00;97883.44;5111707;28;20223;-56
2024/01/21 01:28:16;;;;;;;14.40;12.03;;;;;;;-4.70;100.00;97885.94;5112140;28;20209;-57
2024/01/21 01:30:44;;;;;;;15.80;11.80;;;;;;;-4.68;100.00;97884.19;5113029;27;20292;-57
2024/01/21 01:33:11;;;;;;;15.00;11.40;;;;;;;-4.72;100.00;97887.69;5112850;27;20510;-57
2024/01/21 01:35:37;;;;;;;14.87;12.47;;;;;;;-4.77;100.00;97882.59;5113146;28;20649;-57
2024/01/21 01:38:06;;;;;;;15.53;11.37;;;;;;;-4.75;100.00;97883.44;5113950;28;20224;-58
2024/01/21 01:40:33;;;;;;;12.97;11.40;;;;;;;-4.84;100.00;97887.84;5113733;28;20201;-57
2024/01/21 01:43:02;;;;;;;15.33;11.83;;;;;;;-4.85;100.00;97891.31;5113564;28;20551;-57
2024/01/21 01:45:30;;;;;;;13.53;11.33;;;;;;;-4.80;100.00;97885.22;5113356;28;20255;-57
2024/01/21 01:47:57;;;;;;;13.73;11.43;;;;;;;-4.87;100.00;97887.88;5113436;28;20205;-58
2024/01/21 01:50:24;;;;;;;13.40;11.50;;;;;;;-4.92;100.00;97895.66;5112925;28;20208;-57
2024/01/21 01:52:51;;;;;;;14.47;11.13;;;;;;;-4.97;100.00;97889.75;5113229;28;20207;-58
2024/01/21 01:55:18;;;;;;;16.33;11.77;;;;;;;-5.00;100.00;97886.34;5112795;28;20218;-58
2024/01/21 01:57:46;;;;;;;14.73;10.63;;;;;;;-5.04;100.00;97885.53;5113770;28;20193;-56
2024/01/21 02:00:14;;;;;;;14.10;11.10;;;;;;;-5.05;100.00;97879.50;5124508;28;20256;-58
2024/01/21 02:02:43;;;;;;;18.10;13.13;;;;;;;-4.98;100.00;97874.25;5129615;28;20252;-57
2024/01/21 02:05:10;;;;;;;14.93;11.23;;;;;;;-4.91;100.00;97873.31;5124044;28;20303;-57
2024/01/21 02:07:36;;;;;;;14.67;11.43;;;;;;;-4.94;100.00;97870.78;5112879;28;20672;-58
2024/01/21 02:10:04;;;;;;;14.40;11.80;;;;;;;-5.02;100.00;97869.16;5113593;28;20328;-57
2024/01/21 02:12:30;;;;;;;16.10;11.47;;;;;;;-5.09;100.00;97872.69;5116307;28;20221;-57
2024/01/21 02:14:57;;;;;;;14.03;11.43;;;;;;;-5.11;100.00;97858.97;5120386;28;20193;-58
2024/01/21 02:17:24;;;;;;;12.80;10.77;;;;;;;-5.07;100.00;97855.47;5119102;27;20288;-57
2024/01/21 02:19:54;;;;;;;15.47;11.60;;;;;;;-5.14;100.00;97863.31;5120297;28;20228;-58
2024/01/21 02:22:21;;;;;;;13.43;10.53;;;;;;;-5.13;100.00;97865.00;5118602;28;20193;-57
2024/01/21 02:24:49;;;;;;;13.27;11.27;;;;;;;-5.15;100.00;97859.88;5115495;28;20270;-58
2024/01/21 02:27:16;;;;;;;12.93;10.60;;;;;;;-5.06;100.00;97867.47;5116035;28;20208;-58
2024/01/21 02:29:44;;;;;;;14.00;10.80;;;;;;;-5.10;100.00;97864.97;5115396;28;20292;-58
2024/01/21 02:32:11;;;;;;;16.13;11.77;;;;;;;-5.15;100.00;97866.75;5115218;28;20201;-58
2024/01/21 02:34:38;;;;;;;14.13;11.77;;;;;;;-5.06;100.00;97862.31;5115249;28;20239;-57
2024/01/21 02:37:04;;;;;;;14.10;11.77;;;;;;;-5.08;100.00;97851.19;5113557;28;20201;-56
2024/01/21 02:39:31;;;;;;;13.80;11.37;;;;;;;-5.11;100.00;97852.94;5114678;28;20292;-58
2024/01/21 02:41:59;;;;;;;15.87;11.83;;;;;;;-5.17;100.00;97860.75;5114866;28;20201;-57
2024/01/21 02:44:25;;;;;;;15.03;11.83;;;;;;;-5.26;100.00;97853.13;5125249;28;20284;-58
2024/01/21 02:46:52;;;;;;;13.83;11.90;;;;;;;-5.24;100.00;97862.53;5135741;28;20193;-58
2024/01/21 02:49:23;;;;;;;15.67;12.47;;;;;;;-5.14;100.00;97866.75;5134486;28;20208;-57
2024/01/21 02:51:50;;;;;;;14.10;12.27;;;;;;;-5.05;100.00;97863.19;5132661;28;20216;-58
2024/01/21 02:54:16;;;;;;;13.33;10.87;;;;;;;-5.05;100.00;97870.91;5118273;28;20189;-57
2024/01/21 02:56:43;;;;;;;14.67;11.03;;;;;;;-5.05;100.00;97874.34;5113431;28;20610;-58
2024/01/21 02:59:11;;;;;;;13.47;11.30;;;;;;;-5.08;100.00;97879.56;5112795;28;20257;-57
2024/01/21 03:01:40;;;;;;;13.60;11.20;;;;;;;-5.18;100.00;97877.97;5118911;28;20228;-57
2024/01/21 03:04:06;;;;;;;16.50;11.63;;;;;;;-5.26;100.00;97879.75;5132161;27;20225;-56
2024/01/21 03:06:33;;;;;;;14.07;11.83;;;;;;;-5.27;100.00;97875.47;5132445;28;20209;-57
2024/01/21 03:09:00;;;;;;;16.97;12.27;;;;;;;-5.21;100.00;97877.16;5127611;28;20220;-57
2024/01/21 03:11:26;;;;;;;17.43;12.63;;;;;;;-5.17;100.00;97881.41;5127443;28;20315;-56
2024/01/21 03:13:53;;;;;;;15.93;12.53;;;;;;;-5.20;100.00;97874.53;5126432;28;20236;-57
2024/01/21 03:16:21;;;;;;;16.30;13.03;;;;;;;-5.23;100.00;97874.56;5119683;28;20208;-57
2024/01/21 03:18:47;;;;;;;13.80;11.67;;;;;;;-5.35;100.00;97866.13;5114513;27;20212;-57
2024/01/21 03:21:14;;;;;;;17.47;12.70;;;;;;;-5.26;100.00;97864.28;5115169;28;20676;-57
2024/01/21 03:23:40;;;;;;;18.23;12.60;;;;;;;-5.15;100.00;97872.75;5114781;28;20312;-57
2024/01/21 03:26:08;;;;;;;14.43;11.93;;;;;;;-5.08;100.00;97879.56;5115572;28;20242;-56
2024/01/21 03:28:36;;;;;;;14.73;11.93;;;;;;;-5.07;100.00;97865.78;5115712;28;20208;-58
2024/01/21 03:31:03;;;;;;;16.00;12.87;;;;;;;-4.95;100.00;97864.75;5116799;28;20317;-58
2024/01/21 03:33:31;;;;;;;13.33;11.57;;;;;;;-4.95;100.00;97864.75;5112425;28;20197;-57
2024/01/21 03:35:58;;;;;;;16.30;12.53;;;;;;;-4.93;100.00;97854.44;5111956;28;20196;-56
2024/01/21 03:38:26;;;;;;;15.57;11.83;;;;;;;-4.92;100.00;97844.09;5112127;28;20205;-57
2024/01/21 03:40:52;;;;;;;16.80;12.87;;;;;;;-4.93;100.00;97846.69;5111710;28;20230;-56
2024/01/21 03:43:20;;;;;;;16.03;12.40;;;;;;;-4.95;100.00;97848.44;5111811;28;20561;-57
2024/01/21 03:45:46;;;;;;;15.17;12.27;;;;;;;-4.91;100.00;97850.09;5112029;28;20516;-58
2024/01/21 03:48:13;;;;;;;15.83;11.77;;;;;;;-4.87;100.00;97844.03;5111823;28;20529;-56
2024/01/21 03:50:41;;;;;;;15.63;11.77;;;;;;;-4.81;100.00;97849.09;5111837;28;20268;-57
2024/01/21 03:53:08;;;;;;;15.17;12.00;;;;;;;-4.73;100.00;97855.88;5111724;28;20215;-58
2024/01/21 03:55:34;;;;;;;17.80;12.43;;;;;;;-4.75;100.00;97843.88;5112031;28;20204;-57
2024/01/21 03:58:01;;;;;;;16.20;11.93;;;;;;;-4.63;100.00;97843.69;5111867;28;20201;-58
2024/01/21 04:00:28;;;;;;;17.27;13.07;;;;;;;-4.66;100.00;97839.44;5111850;28;20303;-56
2024/01/21 04:02:54;;;;;;;16.43;12.83;;;;;;;-4.73;100.00;97844.69;5111369;28;20201;-57
2024/01/21 04:05:21;;;;;;;17.70;13.30;;;;;;;-4.74;100.00;97837.81;5111298;28;20235;-57
2024/01/21 04:07:50;;;;;;;18.03;14.00;;;;;;;-4.60;100.00;97843.63;5111080;28;20219;-57
2024/01/21 04:10:16;;;;;;;19.90;12.73;;;;;;;-4.53;100.00;97838.38;5111625;28;20204;-56
2024/01/21 04:12:44;;;;;;;17.23;14.13;;;;;;;-4.56;100.00;97842.72;5111457;28;20207;-57
2024/01/21 04:15:11;;;;;;;17.87;13.77;;;;;;;-4.41;100.00;97845.09;5126465;28;20209;-56
2024/01/21 04:17:37;;;;;;;17.70;13.93;;;;;;;-4.43;100.00;97839.09;5127926;28;20220;-57
2024/01/21 04:20:07;;;;;;;17.37;13.77;;;;;;;-4.48;100.00;97832.28;5121364;28;20637;-57
2024/01/21 04:22:34;;;;;;;18.23;13.80;;;;;;;-4.46;100.00;97830.56;5127769;28;20193;-58
2024/01/21 04:25:02;;;;;;;18.27;14.10;;;;;;;-4.42;100.00;97835.63;5110568;28;20657;-57
2024/01/21 04:27:29;;;;;;;18.27;14.77;;;;;;;-4.42;100.00;97827.88;5111137;28;20201;-57
2024/01/21 04:29:55;;;;;;;18.13;13.93;;;;;;;-4.36;100.00;97824.38;5110871;28;20335;-57
2024/01/21 04:32:22;;;;;;;19.00;14.57;;;;;;;-4.24;100.00;97829.31;5111345;28;20209;-58
2024/01/21 04:34:49;;;;;;;18.70;14.93;;;;;;;-4.35;100.00;97821.75;5111047;28;20537;-57
2024/01/21 04:37:15;;;;;;;17.70;14.33;;;;;;;-4.38;100.00;97824.38;5111191;28;20296;-58
2024/01/21 04:39:42;;;;;;;18.70;14.63;;;;;;;-4.41;100.00;97816.69;5110881;28;20193;-57
2024/01/21 04:42:10;;;;;;;18.00;14.37;;;;;;;-4.33;100.00;97822.59;5113343;28;20574;-57
2024/01/21 04:44:37;;;;;;;20.20;14.67;;;;;;;-4.31;100.00;97823.41;5114325;28;20530;-57
2024/01/21 04:47:05;;;;;;;21.00;16.00;;;;;;;-4.42;100.00;97809.81;5113867;27;20209;-58
2024/01/21 04:49:32;;;;;;;20.00;14.63;;;;;;;-4.41;100.00;97803.78;5113618;27;20729;-57
2024/01/21 04:52:01;;;;;;;18.17;14.87;;;;;;;-4.45;100.00;97811.56;5114728;28;20304;-57
2024/01/21 04:54:27;;;;;;;19.40;14.40;;;;;;;-4.42;100.00;97807.22;5114755;28;20208;-57
2024/01/21 04:56:54;;;;;;;19.30;14.23;;;;;;;-4.38;100.00;97810.59;5114521;28;20305;-57
2024/01/21 04:59:22;;;;;;;18.57;14.77;;;;;;;-4.50;100.00;97810.81;5113947;28;20570;-58
2024/01/21 05:01:49;;;;;;;19.33;14.43;;;;;;;-4.57;100.00;97812.66;5114184;28;20205;-56
2024/01/21 05:04:16;;;;;;;18.63;14.23;;;;;;;-4.56;100.00;97816.91;5114340;27;20217;-57
2024/01/21 05:06:42;;;;;;;17.13;13.50;;;;;;;-4.57;100.00;97813.47;5114457;28;21430;-57
2024/01/21 05:09:10;;;;;;;18.07;13.53;;;;;;;-4.56;100.00;97811.75;5114431;28;20197;-57
2024/01/21 05:11:37;;;;;;;18.40;13.80;;;;;;;-4.57;100.00;97810.88;5114494;28;20279;-57
2024/01/21 05:14:05;;;;;;;18.23;13.90;;;;;;;-4.67;100.00;97819.66;5112988;28;20717;-57
2024/01/21 05:16:33;;;;;;;16.37;13.33;;;;;;;-4.67;100.00;97816.22;5113359;28;20197;-57
2024/01/21 05:18:59;;;;;;;17.20;13.67;;;;;;;-4.63;100.00;97812.72;5113534;28;20610;-57
2024/01/21 05:21:26;;;;;;;17.03;13.43;;;;;;;-4.72;100.00;97810.28;5113751;28;20288;-57
2024/01/21 05:23:53;;;;;;;18.87;13.97;;;;;;;-4.70;100.00;97805.94;5113235;28;20231;-57
2024/01/21 05:26:19;;;;;;;17.17;13.00;;;;;;;-4.72;100.00;97811.13;5113726;28;20212;-58
2024/01/21 05:28:46;;;;;;;14.57;11.97;;;;;;;-4.70;100.00;97816.25;5114523;28;20197;-57
2024/01/21 05:31:14;;;;;;;16.63;12.57;;;;;;;-4.67;100.00;97823.94;5113863;28;20205;-57
2024/01/21 05:33:42;;;;;;;15.73;12.13;;;;;;;-4.73;100.00;97822.31;5113944;28;20597;-57
2024/01/21 05:36:09;;;;;;;14.57;11.20;;;;;;;-4.68;100.00;97833.44;5114008;28;20209;-58
2024/01/21 05:38:36;;;;;;;14.13;11.37;;;;;;;-4.63;100.00;97841.09;5113223;28;20212;-57
2024/01/21 05:41:02;;;;;;;15.33;11.60;;;;;;;-4.68;100.00;97833.44;5114014;28;20209;-57
2024/01/21 05:43:29;;;;;;;13.70;11.70;;;;;;;-4.58;100.00;97844.47;5113114;28;20304;-58
2024/01/21 05:45:55;;;;;;;14.80;11.87;;;;;;;-4.52;100.00;97844.38;5113032;28;20211;-57
2024/01/21 05:48:22;;;;;;;13.63;11.50;;;;;;;-4.48;100.00;97835.72;5113543;28;20200;-57
2024/01/21 05:50:50;;;;;;;19.70;13.50;;;;;;;-4.49;100.00;97849.50;5113506;28;20296;-57
2024/01/21 05:53:16;;;;;;;21.30;13.93;;;;;;;-4.45;100.00;97839.97;5113273;28;20216;-58
2024/01/21 05:55:45;;;;;;;23.97;17.33;;;;;;;-4.39;100.00;97842.50;5112664;28;20215;-57
2024/01/21 05:58:12;;;;;;;24.07;16.67;;;;;;;-4.47;100.00;97846.91;5113321;28;20228;-57
2024/01/21 06:00:39;;;;;;;21.37;16.53;;;;;;;-4.44;100.00;97850.28;5112863;28;20205;-58
2024/01/21 06:03:05;;;;;;;20.83;15.77;;;;;;;-4.46;100.00;97854.59;5113395;28;20296;-58
2024/01/21 06:05:32;;;;;;;21.53;16.13;;;;;;;-4.44;100.00;97852.88;5113224;27;20300;-57
2024/01/21 06:08:00;;;;;;;22.40;16.03;;;;;;;-4.45;100.00;97852.88;5113022;28;20216;-58
2024/01/21 06:10:27;;;;;;;21.90;16.40;;;;;;;-4.48;100.00;97852.94;5113141;28;20197;-57
2024/01/21 06:12:53;;;;;;;24.23;16.63;;;;;;;-4.43;100.00;97853.72;5112630;28;20201;-60
2024/01/21 06:15:20;;;;;;;21.50;15.70;;;;;;;-4.48;100.00;97856.38;5112250;28;20196;-57
2024/01/21 06:17:46;;;;;;;20.00;14.97;;;;;;;-4.51;100.00;97856.44;5113487;28;20296;-57
2024/01/21 06:20:14;;;;;;;21.50;14.93;;;;;;;-4.66;100.00;97852.31;5113011;27;20300;-56
2024/01/21 06:22:40;;;;;;;20.63;14.57;;;;;;;-4.60;100.00;97866.88;5112664;28;20201;-58
2024/01/21 06:25:09;;;;;;;17.27;13.30;;;;;;;-4.58;100.00;97867.72;5112310;28;20225;-58
2024/01/21 06:27:35;;;;;;;19.30;13.97;;;;;;;-4.59;100.00;97871.16;5112760;28;20233;-57
2024/01/21 06:30:12;;;;;;;18.87;14.77;;;;;;;-4.61;100.00;97876.34;5118658;28;20304;-57
2024/01/21 06:32:38;;;;;;;17.70;13.10;;;;;;;-4.60;100.00;97890.94;5124803;28;20200;-58
2024/01/21 06:35:07;;;;;;;17.73;13.70;;;;;;;-4.55;100.00;97896.91;5122178;27;20288;-57
2024/01/21 06:37:33;;;;;;;16.63;13.03;;;;;;;-4.48;100.00;97902.84;5113112;28;20218;-57
2024/01/21 06:40:00;;;;;;;17.03;13.90;;;;;;;-4.60;100.00;97892.66;5112839;28;20208;-58
2024/01/21 06:42:28;;;;;;;17.77;12.77;;;;;;;-4.61;100.00;97894.44;5111940;28;20201;-58
2024/01/21 06:44:54;;;;;;;17.37;13.80;;;;;;;-4.56;100.00;97899.50;5112174;28;20231;-58
2024/01/21 06:47:21;;;;;;;17.30;12.87;;;;;;;-4.58;100.00;97893.53;5112722;28;20201;-58
2024/01/21 06:49:47;;;;;;;19.33;15.00;;;;;;;-4.43;100.00;97901.06;5112371;28;20193;-56
2024/01/21 06:52:14;;;;;;;19.03;14.87;;;;;;;-4.38;100.00;97904.41;5112396;28;20280;-58
2024/01/21 06:54:41;;;;;;;17.37;13.30;;;;;;;-4.43;100.00;97908.81;5112307;28;20229;-57
2024/01/21 06:57:08;;;;;;;19.13;14.70;;;;;;;-4.40;100.00;97913.06;5112622;28;20216;-57
2024/01/21 06:59:36;;;;;;;20.53;14.57;;;;;;;-4.33;100.00;97912.09;5111711;28;20229;-57
2024/01/21 07:02:02;;;;;;;19.63;14.23;;;;;;;-4.31;100.00;97911.19;5110414;28;20649;-58
2024/01/21 07:04:29;;;;;;;22.93;16.10;;;;;;;-4.25;100.00;97928.34;5110912;28;20673;-57
2024/01/21 07:06:56;;;;;;;19.10;15.43;;;;;;;-4.25;100.00;97920.59;5112469;27;20201;-57
2024/01/21 07:09:23;;;;;;;22.30;16.07;;;;;;;-4.24;100.00;97928.31;5111529;28;20288;-57
2024/01/21 07:11:49;;;;;;;25.33;17.93;;;;;;;-4.19;100.00;97930.81;5112252;28;20197;-58
2024/01/21 07:14:16;;;;;;;22.40;17.20;;;;;;;-4.39;100.00;97928.50;5111574;28;20284;-57
2024/01/21 07:16:44;;;;;;;23.03;16.67;;;;;;;-4.43;100.00;97924.28;5111571;28;20203;-58
2024/01/21 07:19:11;;;;;;;24.90;17.83;;;;;;;-4.33;100.00;97933.63;5111293;28;20850;-58
2024/01/21 07:21:37;;;;;;;22.27;17.87;;;;;;;-4.26;100.00;97935.22;5111382;28;20225;-58
2024/01/21 07:24:05;;;;;;;23.93;17.90;;;;;;;-4.20;100.00;97945.47;5110866;28;20284;-57
2024/01/21 07:26:34;;;;;;;24.20;17.60;;;;;;;-4.13;100.00;97952.25;5111804;28;20193;-57
2024/01/21 07:29:00;;;;;;;27.57;18.03;;;;;;;-4.10;100.00;97954.78;5111732;28;20204;-57
2024/01/21 07:31:28;;;;;;;23.20;16.80;;;;;;;-4.07;100.00;97954.72;5111693;28;20201;-58
2024/01/21 07:33:56;;;;;;;22.70;17.00;;;;;;;-4.07;100.00;97967.66;5111552;28;20197;-58
2024/01/21 07:36:23;;;;;;;25.77;17.37;;;;;;;-4.07;100.00;97966.78;5110841;28;20288;-58
2024/01/21 07:38:50;;;;;;;22.77;17.17;;;;;;;-4.10;100.00;97961.69;5111352;28;20212;-59
2024/01/21 07:41:16;;;;;;;24.40;17.87;;;;;;;-3.93;100.00;97958.88;5111688;27;20265;-56
2024/01/21 07:43:43;;;;;;;24.37;17.40;;;;;;;-3.94;100.00;97959.72;5111667;28;20197;-57
2024/01/21 07:46:10;;;;;;;23.40;17.07;;;;;;;-3.86;100.00;97965.66;5110567;28;20225;-58
2024/01/21 07:48:36;;;;;;;24.20;17.37;;;;;;;-3.73;100.00;97977.50;5111313;28;20197;-59
2024/01/21 07:51:05;;;;;;;24.87;18.30;;;;;;;-3.73;100.00;97977.50;5111255;27;20614;-58
2024/01/21 07:53:32;;;;;;;23.63;17.93;;;;;;;-3.68;100.00;97973.09;5111387;28;20212;-57
2024/01/21 07:55:59;;;;;;;26.10;18.83;;;;;;;-3.55;100.00;97977.19;5111171;28;20209;-57
2024/01/21 07:58:25;;;;;;;25.43;18.27;;;;;;;-3.48;100.00;97989.16;5111493;28;20232;-58
2024/01/21 08:00:52;;;;;;;23.93;17.77;;;;;;;-3.49;100.00;97991.75;5111125;28;20284;-58
2024/01/21 08:03:18;;;;;;;23.93;18.23;;;;;;;-3.48;100.00;97994.31;5111713;28;20243;-58
2024/01/21 08:05:45;;;;;;;28.43;22.20;;;;;;;-3.37;100.00;97988.97;5111386;28;20543;-59
2024/01/21 08:08:13;;;;;;;26.23;20.10;;;;;;;-3.33;100.00;97983.69;5111029;28;20288;-58
2024/01/21 08:10:40;;;;;;;26.47;19.77;;;;;;;-3.30;100.00;97983.66;5131688;28;20184;-64
2024/01/21 08:13:07;;;;;;;28.37;21.30;;;;;;;-3.20;100.00;97974.88;5137335;28;20192;-58
2024/01/21 08:15:33;;;;;;;27.33;20.47;;;;;;;-3.16;100.00;97966.16;5136806;28;20224;-58
2024/01/21 08:18:01;;;;;;;26.57;20.40;;;;;;;-3.16;100.00;97971.34;5137403;28;20202;-59
2024/01/21 08:20:28;;;;;;;26.87;20.27;;;;;;;-3.02;100.00;97969.34;5115955;28;20213;-58
2024/01/21 08:22:57;;;;;;;26.80;18.80;;;;;;;-2.98;100.00;97970.16;5116414;27;20533;-58
2024/01/21 08:25:25;;;;;;;24.67;19.03;;;;;;;-2.93;100.00;97968.31;5115640;28;20228;-58
2024/01/21 08:27:52;;;;;;;24.87;18.87;;;;;;;-2.89;100.00;97969.09;5115359;28;20203;-59
2024/01/21 08:30:19;;;;;;;23.23;18.13;;;;;;;-2.83;100.00;97976.75;5114916;28;20450;-58
2024/01/21 08:32:45;;;;;;;25.00;18.77;;;;;;;-2.76;100.00;97984.38;5115424;28;20823;-57
2024/01/21 08:35:12;;;;;;;25.83;19.10;;;;;;;-2.63;100.00;97977.22;5115140;28;20205;-58
2024/01/21 08:37:39;;;;;;;25.60;19.17;;;;;;;-2.56;100.00;97974.50;5114863;28;20627;-59
2024/01/21 08:40:07;;;;;;;25.70;18.77;;;;;;;-2.56;100.00;97973.63;5115108;28;20252;-57
2024/01/21 08:42:37;;;;;;;26.37;19.43;;;;;;;-2.58;100.00;97976.25;5115499;28;20278;-59
2024/01/21 08:45:06;;;;;;;27.73;20.53;;;;;;;-2.51;100.00;97982.16;5129890;28;20286;-57
2024/01/21 08:47:34;;;;;;;27.20;20.50;;;;;;;-2.45;100.00;97984.63;5130378;28;20270;-58
2024/01/21 08:50:00;;;;;;;31.23;22.40;;;;;;;-2.43;100.00;97985.44;5127658;28;20545;-58
2024/01/21 08:52:27;;;;;;;28.77;22.20;;;;;;;-2.33;100.00;97989.53;5114825;27;20209;-58
2024/01/21 08:54:54;;;;;;;26.73;20.27;;;;;;;-2.26;100.00;97982.50;5115118;27;20296;-58
2024/01/21 08:57:24;;;;;;;25.50;18.60;;;;;;;-2.06;100.00;97996.75;5114866;28;20211;-58
2024/01/21 08:59:52;;;;;;;24.50;18.60;;;;;;;-2.12;100.00;98001.19;5114184;28;20235;-58
2024/01/21 09:02:19;;;;;;;21.43;17.87;;;;;;;-2.00;100.00;97990.56;5114507;28;20211;-58
2024/01/21 09:04:46;;;;;;;23.53;18.40;;;;;;;-1.90;100.00;97994.66;5115136;28;20229;-56
2024/01/21 09:07:12;;;;;;;25.00;18.97;;;;;;;-1.82;100.00;97991.88;5114399;28;21425;-58
2024/01/21 09:09:39;;;;;;;27.43;19.77;;;;;;;-1.70;100.00;97995.03;5114621;28;20252;-58
2024/01/21 09:12:07;;;;;;;26.77;20.33;;;;;;;-1.55;100.00;97988.63;5114113;28;20307;-58
2024/01/21 09:14:34;;;;;;;25.73;18.53;;;;;;;-1.57;100.00;97990.44;5114127;28;20204;-57
2024/01/21 09:17:02;;;;;;;22.20;18.33;;;;;;;-1.30;100.00;97976.78;5113890;28;20210;-57
2024/01/21 09:19:29;;;;;;;20.17;17.50;;;;;;;-1.11;100.00;98000.53;5113699;28;20633;-58
2024/01/21 09:21:55;;;;;;;22.13;17.17;;;;;;;-0.94;100.00;98000.09;5113138;28;20195;-57
2024/01/21 09:24:22;;;;;;;23.30;18.27;;;;;;;-0.67;100.00;97996.75;5114067;28;20244;-58
2024/01/21 09:26:48;;;;;;;21.30;17.40;;;;;;;-0.74;100.00;97992.59;5113020;28;20686;-58
2024/01/21 09:29:15;;;;;;;21.93;16.97;;;;;;;-0.55;100.00;97986.88;5113748;28;20535;-58
2024/01/21 09:31:42;;;;;;;22.70;17.87;;;;;;;-0.47;100.00;97975.41;5113695;28;20535;-58
2024/01/21 09:34:10;;;;;;;21.47;16.77;;;;;;;-0.30;100.00;97979.25;5114130;28;20265;-57
2024/01/21 09:36:37;;;;;;;21.93;17.47;;;;;;;-0.19;100.00;97973.72;5113879;28;20231;-58
2024/01/21 09:39:04;;;;;;;21.33;17.50;;;;;;;0.14;100.00;98003.09;5112958;28;20201;-57
2024/01/21 09:41:34;;;;;;;21.67;17.20;;;;;;;0.42;100.00;97988.31;5113817;28;20208;-57
2024/01/21 09:44:00;;;;;;;22.00;18.00;;;;;;;0.64;100.00;97994.53;5113493;28;20212;-58
2024/01/21 09:46:27;;;;;;;20.00;17.33;;;;;;;0.75;99.41;97988.97;5112593;28;21004;-57
2024/01/21 09:48:54;;;;;;;18.60;15.73;;;;;;;0.60;100.00;97992.09;5113560;28;20222;-58
2024/01/21 09:51:23;;;;;;;20.10;16.87;;;;;;;0.63;100.00;97990.25;5113575;28;20301;-58
2024/01/21 09:53:50;;;;;;;18.60;16.30;;;;;;;0.67;100.00;97994.44;5113660;27;20220;-58
2024/01/21 09:56:17;;;;;;;19.00;15.90;;;;;;;0.73;100.00;97999.44;5113488;28;20197;-58
2024/01/21 09:58:46;;;;;;;19.73;16.47;;;;;;;0.65;100.00;97995.38;5113538;28;20227;-58
2024/01/21 10:01:13;;;;;;;19.33;16.30;;;;;;;0.56;100.00;97990.47;5112795;28;20205;-57
2024/01/21 10:03:40;;;;;;;18.13;15.53;;;;;;;0.62;100.00;97985.94;5113080;28;20300;-58
2024/01/21 10:06:07;;;;;;;20.10;15.23;;;;;;;0.77;100.00;97971.56;5112844;28;20881;-58
2024/01/21 10:08:37;;;;;;;17.17;14.70;;;;;;;0.85;100.00;97967.78;5112548;28;20205;-58
2024/01/21 10:11:04;;;;;;;19.03;15.17;;;;;;;0.69;100.00;97971.81;5112445;28;20197;-57
2024/01/21 10:13:31;;;;;;;17.30;14.63;;;;;;;0.95;100.00;97976.16;5113085;28;20189;-58
2024/01/21 10:15:58;;;;;;;16.97;14.40;;;;;;;0.97;100.00;97958.69;5111831;28;20201;-58
2024/01/21 10:18:24;;;;;;;17.17;14.93;;;;;;;0.93;100.00;97959.72;5112577;28;20624;-57
2024/01/21 10:20:52;;;;;;;16.93;14.27;;;;;;;0.81;100.00;97965.34;5113016;28;20219;-57
2024/01/21 10:23:18;;;;;;;15.00;13.40;;;;;;;0.88;100.00;97957.28;5113082;27;20193;-57
2024/01/21 10:25:47;;;;;;;14.67;12.70;;;;;;;0.98;100.00;97961.28;5112640;28;20229;-57
2024/01/21 10:28:14;;;;;;;17.57;13.63;;;;;;;0.93;100.00;97950.16;5112448;28;20197;-58
2024/01/21 10:30:42;;;;;;;14.57;12.27;;;;;;;1.14;100.00;97947.69;5112423;28;20201;-57
2024/01/21 10:33:09;;;;;;;14.17;12.37;;;;;;;1.21;100.00;97943.97;5112129;28;20291;-58
2024/01/21 10:35:35;;;;;;;13.47;11.73;;;;;;;1.47;100.00;97957.78;5112361;28;20193;-58
2024/01/21 10:38:05;;;;;;;14.57;13.07;;;;;;;1.49;100.00;97955.09;5111746;28;20308;-57
2024/01/21 10:40:32;;;;;;;14.23;12.33;;;;;;;1.47;100.00;97959.53;5111371;28;20197;-58
2024/01/21 10:43:00;;;;;;;13.60;11.70;;;;;;;1.62;100.00;97951.16;5112070;28;20528;-57
2024/01/21 10:45:30;;;;;;;14.53;12.47;;;;;;;1.60;100.00;97947.75;5111693;28;20736;-57
2024/01/21 10:47:57;;;;;;;13.20;11.73;;;;;;;1.77;100.00;97939.31;5112515;28;20211;-57
2024/01/21 10:50:23;;;;;;;13.30;11.90;;;;;;;1.93;100.00;97937.81;5112774;28;20213;-58
2024/01/21 10:52:50;;;;;;;16.27;14.07;;;;;;;1.80;100.00;97934.84;5111941;28;20542;-58
2024/01/21 10:55:17;;;;;;;14.40;12.67;;;;;;;2.07;99.48;97939.88;5112057;28;20307;-58
2024/01/21 10:57:47;;;;;;;16.23;14.53;;;;;;;2.07;100.00;97937.28;5111929;28;20211;-57
2024/01/21 11:00:16;;;;;;;15.90;13.87;;;;;;;2.24;99.06;97933.09;5119619;28;20236;-56
2024/01/21 11:02:42;;;;;;;15.23;13.37;;;;;;;2.11;100.00;97938.88;5131452;28;20212;-56
2024/01/21 11:05:09;;;;;;;16.87;14.50;;;;;;;2.17;98.67;97933.38;5117756;28;20201;-58
2024/01/21 11:07:37;;;;;;;16.07;14.27;;;;;;;2.14;96.83;97920.47;5111735;28;20211;-57
2024/01/21 11:10:06;;;;;;;17.93;14.40;;;;;;;2.21;97.84;97924.53;5111956;28;20229;-57